createdAt,value
2022-08-26T03:09:40.184Z,100.00
2022-08-26T03:12:47.540Z,100.00
2022-08-26T03:15:50.423Z,100.00
2022-08-26T03:18:52.903Z,100.00
2022-08-26T03:21:57.932Z,100.00
2022-08-26T03:25:00.558Z,100.00
2022-08-26T03:28:02.889Z,100.00
2022-08-26T03:31:05.622Z,100.00
2022-08-26T03:34:07.762Z,100.00
2022-08-26T03:37:10.126Z,100.00
2022-08-26T03:40:12.482Z,100.00
2022-08-26T03:43:16.276Z,100.00
2022-08-26T03:46:20.469Z,100.00
2022-08-26T03:49:23.500Z,100.00
2022-08-26T03:52:26.211Z,100.00
2022-08-26T03:55:33.199Z,100.00
2022-08-26T03:58:35.714Z,100.00
2022-08-26T04:01:38.171Z,100.00
2022-08-26T04:04:40.566Z,100.00
2022-08-26T04:07:42.875Z,100.00
2022-08-26T04:10:45.987Z,100.00
2022-08-26T04:13:48.671Z,100.00
2022-08-26T04:16:54.008Z,100.00
2022-08-26T04:19:57.555Z,100.00
2022-08-26T04:22:59.961Z,100.00
2022-08-26T04:26:02.327Z,100.00
2022-08-26T04:29:15.883Z,100.00
2022-08-26T04:32:18.031Z,100.00
2022-08-26T04:35:25.841Z,100.00
2022-08-26T04:38:28.695Z,100.00
2022-08-26T04:41:31.760Z,100.00
2022-08-26T04:44:35.984Z,100.00
2022-08-26T04:47:38.437Z,98.52
2022-08-26T04:50:40.550Z,97.25
2022-08-26T04:53:46.027Z,94.06
2022-08-26T04:56:49.534Z,93.87
2022-08-26T04:59:51.926Z,91.13
2022-08-26T05:02:53.999Z,91.22
2022-08-26T05:05:56.986Z,91.10
2022-08-26T05:08:59.135Z,88.59
2022-08-26T05:12:01.491Z,85.92
2022-08-26T05:15:05.988Z,85.99
2022-08-26T05:18:08.794Z,84.69
2022-08-26T05:21:20.364Z,83.22
2022-08-26T05:24:23.387Z,80.33
2022-08-26T05:27:25.531Z,78.08
2022-08-26T05:30:31.396Z,76.86
2022-08-26T05:33:33.646Z,75.63
2022-08-26T05:36:37.202Z,73.84
2022-08-26T05:39:41.252Z,71.77
2022-08-26T05:42:47.548Z,70.31
2022-08-26T05:45:50.567Z,67.99
2022-08-26T05:48:54.096Z,66.58
2022-08-26T05:51:56.267Z,65.05
2022-08-26T05:55:00.012Z,64.67
2022-08-26T05:58:02.758Z,63.42
2022-08-26T06:01:07.681Z,61.17
2022-08-26T06:04:12.052Z,60.80
2022-08-26T06:07:14.388Z,57.26
2022-08-26T06:10:33.189Z,59.09
2022-08-26T06:13:35.534Z,57.23
2022-08-26T06:16:41.348Z,56.70
2022-08-26T06:19:43.711Z,54.84
2022-08-26T06:23:09.402Z,53.44
2022-08-26T06:26:15.607Z,53.18
2022-08-26T06:29:24.327Z,51.10
2022-08-26T06:32:27.255Z,50.15
2022-08-26T06:35:29.623Z,52.65
2022-08-26T06:38:31.759Z,51.73
2022-08-26T06:41:35.088Z,50.84
2022-08-26T06:44:41.111Z,49.82
2022-08-26T06:47:43.617Z,49.61
2022-08-26T06:50:46.894Z,48.13
2022-08-26T06:53:54.063Z,45.29
2022-08-26T06:56:57.416Z,46.76
2022-08-26T06:59:59.857Z,46.46
2022-08-26T07:03:03.065Z,44.73
2022-08-26T07:06:05.810Z,44.16
2022-08-26T07:09:10.219Z,44.96
2022-08-26T07:12:12.725Z,43.08
2022-08-26T07:15:15.855Z,44.31
2022-08-26T07:18:18.639Z,41.98
2022-08-26T07:21:24.890Z,42.08
2022-08-26T07:24:28.560Z,43.69
2022-08-26T07:27:31.299Z,43.23
2022-08-26T07:30:34.161Z,43.15
2022-08-26T07:33:38.592Z,40.75
2022-08-26T07:36:41.713Z,42.94
2022-08-26T07:39:45.127Z,42.88
2022-08-26T07:42:48.011Z,42.79
2022-08-26T07:45:50.897Z,42.21
2022-08-26T07:48:53.399Z,43.30
2022-08-26T07:51:56.741Z,41.60
2022-08-26T07:55:01.256Z,41.45
2022-08-26T07:58:05.479Z,42.00
2022-08-26T08:01:08.278Z,43.28
2022-08-26T08:04:11.220Z,43.66
2022-08-26T08:07:16.029Z,42.31
2022-08-26T08:10:22.395Z,43.33
2022-08-26T08:13:27.663Z,42.10
2022-08-26T08:16:32.299Z,41.31
2022-08-26T08:19:39.129Z,42.58
2022-08-26T08:22:42.498Z,42.80
2022-08-26T08:25:45.357Z,41.71
2022-08-26T08:28:48.209Z,42.08
2022-08-26T08:31:56.628Z,41.36
2022-08-26T08:35:00.271Z,41.52
2022-08-26T08:38:04.675Z,41.10
2022-08-26T08:41:35.695Z,40.56
2022-08-26T08:44:41.996Z,41.26
2022-08-26T08:47:51.779Z,40.33
2022-08-26T08:51:18.296Z,39.35
2022-08-26T08:54:22.056Z,38.57
2022-08-26T08:57:53.667Z,38.55
2022-08-26T09:01:04.542Z,37.55
2022-08-26T09:04:33.358Z,37.62
2022-08-26T09:07:37.683Z,39.34
2022-08-26T09:10:49.696Z,36.17
2022-08-26T09:13:53.941Z,37.05
2022-08-26T09:17:09.836Z,35.41
2022-08-26T09:20:20.560Z,36.31
2022-08-26T09:23:23.060Z,35.55
2022-08-26T09:26:45.526Z,33.78
2022-08-26T09:29:50.410Z,33.76
2022-08-26T09:32:58.891Z,33.82
2022-08-26T09:36:16.253Z,31.36
2022-08-26T09:39:27.481Z,29.86
2022-08-26T09:42:29.615Z,28.82
2022-08-26T09:45:31.999Z,28.60
2022-08-26T09:48:37.071Z,28.38
2022-08-26T09:51:43.035Z,27.06
2022-08-26T09:55:01.018Z,26.76
2022-08-26T09:58:08.941Z,26.26
2022-08-26T10:01:25.639Z,25.17
2022-08-26T10:04:28.180Z,22.92
2022-08-26T10:07:47.771Z,24.43
2022-08-26T10:10:53.232Z,23.52
2022-08-26T10:14:02.230Z,24.78
2022-08-26T10:17:08.222Z,22.66
2022-08-26T10:20:23.197Z,21.64
2022-08-26T10:23:29.822Z,19.85
2022-08-26T10:26:44.504Z,20.63
2022-08-26T10:29:50.816Z,20.94
2022-08-26T10:33:01.036Z,23.01
2022-08-26T10:36:30.137Z,23.81
2022-08-26T10:39:36.964Z,24.18
2022-08-26T10:43:11.092Z,22.86
2022-08-26T10:46:20.115Z,22.60
2022-08-26T10:49:22.970Z,22.43
2022-08-26T10:52:46.692Z,21.34
2022-08-26T10:55:58.983Z,20.42
2022-08-26T10:59:34.548Z,19.60
2022-08-26T11:02:47.193Z,18.79
2022-08-26T11:06:29.093Z,15.74
2022-08-26T11:09:46.577Z,12.70
2022-08-26T11:12:50.803Z,11.54
2022-08-26T11:15:53.076Z,10.45
2022-08-26T11:18:56.000Z,10.44
2022-08-26T11:22:25.040Z,9.33
2022-08-26T11:25:30.788Z,9.26
2022-08-26T11:28:44.133Z,10.18
2022-08-26T11:31:49.649Z,11.46
2022-08-26T11:34:58.342Z,12.50
2022-08-26T11:38:05.375Z,14.16
2022-08-26T11:41:20.806Z,17.35
2022-08-26T11:44:26.954Z,21.20
2022-08-26T11:47:31.914Z,22.83
2022-08-26T11:50:34.171Z,23.41
2022-08-26T11:53:40.116Z,23.48
2022-08-26T11:56:44.705Z,25.71
2022-08-26T11:59:47.507Z,26.75
2022-08-26T12:02:51.262Z,26.24
2022-08-26T12:05:55.204Z,25.51
2022-08-26T12:09:05.863Z,27.67
2022-08-26T12:12:23.680Z,25.65
2022-08-26T12:15:30.030Z,25.73
2022-08-26T12:18:39.628Z,26.52
2022-08-26T12:21:42.480Z,26.30
2022-08-26T12:24:51.070Z,26.39
2022-08-26T12:27:54.075Z,28.27
2022-08-26T12:31:01.938Z,27.37
2022-08-26T12:34:18.656Z,27.01
2022-08-26T12:37:21.278Z,27.30
2022-08-26T12:40:26.202Z,26.71
2022-08-26T12:43:40.885Z,26.34
2022-08-26T12:46:46.686Z,26.37
2022-08-26T12:50:11.241Z,27.01
2022-08-26T12:53:25.114Z,25.98
2022-08-26T12:56:34.168Z,26.37
2022-08-26T12:59:36.290Z,27.56
2022-08-26T13:02:39.746Z,27.62
2022-08-26T13:05:41.849Z,28.19
2022-08-26T13:08:46.622Z,28.34
2022-08-26T13:11:48.663Z,27.61
2022-08-26T13:14:51.013Z,28.70
2022-08-26T13:17:53.113Z,26.97
2022-08-26T13:20:57.743Z,27.76
2022-08-26T13:24:09.008Z,26.74
2022-08-26T13:27:13.985Z,26.91
2022-08-26T13:30:16.247Z,27.22
2022-08-26T13:33:18.726Z,27.15
2022-08-26T13:36:22.417Z,27.46
2022-08-26T13:39:26.109Z,28.62
2022-08-26T13:42:28.292Z,27.77
2022-08-26T13:45:31.610Z,27.27
2022-08-26T13:48:34.958Z,26.82
2022-08-26T13:51:38.974Z,27.78
2022-08-26T13:54:41.255Z,27.49
2022-08-26T13:57:43.689Z,28.45
2022-08-26T14:00:45.850Z,28.73
2022-08-26T14:03:49.490Z,28.04
2022-08-26T14:06:51.660Z,27.54
2022-08-26T14:09:54.404Z,28.92
2022-08-26T14:12:56.614Z,31.26
2022-08-26T14:16:01.357Z,31.64
2022-08-26T14:19:05.685Z,28.64
2022-08-26T14:22:08.308Z,28.77
2022-08-26T14:25:14.624Z,28.14
2022-08-26T14:28:17.434Z,30.35
2022-08-26T14:31:19.645Z,27.86
2022-08-26T14:34:22.017Z,28.46
2022-08-26T14:37:24.866Z,30.68
2022-08-26T14:40:30.880Z,28.29
2022-08-26T14:43:33.583Z,28.03
2022-08-26T14:46:43.659Z,29.71
2022-08-26T14:49:45.803Z,29.34
